Sunday, August 31, 2014
00:23 UTC
  |  Log In   |  Register Free
Airport Search:

Yellowstone Regional Airport
(KCOD)

Yellowstone Regional Airport Diagram
No Airport Diagram Available

FAA data valid effective July 24, 2014 until September 18, 2014 (unless otherwise noted).

 
 
 
 
 
 
 
 
 
 
 
 
 
 

Current Aviation Weather for Yellowstone Regional Airport (KCOD)

The most recent METAR observation for KCOD was updated at: 2255 UTC
METAR Summary (Translated METAR)
KCOD
302255Z 24011G17KT 10SM FEW060 FEW080 OVC090 14/08 A2993 RMK AO1 TSE06 P0003
KGEY
(40.3 nm SE from KCOD)
302308Z AUTO 35011KT 9SM -RA SCT060 BKN070 OVC100 16/14 A2986 RMK AO2 WSHFT 2248 LTG DSNT NE-SE P0000 T01560139
TAF Summary (Translated TAF)
KCOD
302106Z 3021/3118 VRB12G18KT P6SM VCTS BKN070CB FM310000 VRB10KT P6SM VCTS SCT060CB BKN120 FM310400 35008KT P6SM VCSH SCT050 BKN080 FM311000 36012KT 5SM -SHRA BR OVC050 AMD LTD TO CLD VIS AND WIND
  Airport Weather Conditions for KCOD

 Current Weather at COD
55° F
Partly Cloudy
North winds at 6.9 mph
COD NOAA Radar

Pressure: 29.90 in
Humidity: 67%
Wind: North at 6.9 MPH (6 KT)
Dew Point: 44.6°F
Visibility: 10.00 mi


Airport Weather Forecast for KCOD

Translated METAR and TAF for KCOD
Translated METAR for KCOD (0016 UTC 31 August 2014)
found at http://aviationweather.gov/adds/metars/
 
METAR text: KCOD 310015Z 26007G21KT 10SM FEW120 15/07 A2990 RMK AO1
Conditions at: KCOD (CODY , WY, US) observed 0015 UTC 31 August 2014
Temperature: 15.0°C (59°F)
Dewpoint: 7.0°C (45°F) [RH = 59%]
Pressure (altimeter): 29.90 inches Hg (1012.6 mb)
Winds: from the W (260 degrees) at 8 MPH (7 knots; 3.6 m/s)
gusting to 24 MPH (21 knots; 10.9 m/s)
Visibility: 10 or more miles (16+ km)
Ceiling: at least 12,000 feet AGL
Clouds: few clouds at 12000 feet AGL
Weather: no significant weather observed at this time
Translated TAF for KCOD
Forecast for: KCOD (CODY , WY, US)
TAF Text: KCOD 302337Z 3100/3124 VRB10G20KT P6SM VCTS SCT070CB BKN120
Forecast period: 0000 to 0400 UTC 31 August 2014
Forecast type: FROM: standard forecast or significant change
Winds: variable direction winds at 12 MPH (10 knots; 5.2 m/s)
gusting to 23 MPH (20 knots; 10.4 m/s)
Visibility: 6 or more miles (10+ km)
Ceiling: 12000 feet AGL
Clouds: scattered clouds at 7000 feet AGL
broken clouds at 12000 feet AGL
Weather: VCTS  (thunderstorm in vicinity)
TAF Text: FM310400 35008KT P6SM VCSH SCT050 BKN080
Forecast period: 0400 to 1000 UTC 31 August 2014
Forecast type: FROM: standard forecast or significant change
Winds: from the N (350 degrees) at 9 MPH (8 knots; 4.2 m/s)
Visibility: 6 or more miles (10+ km)
Ceiling: 8000 feet AGL
Clouds: scattered clouds at 5000 feet AGL
broken clouds at 8000 feet AGL
Weather: VCSH  (showers in vicinity)
TAF Text: FM311000 36012KT 5SM -SHRA BR OVC050
Forecast period: 1000 to 2100 UTC 31 August 2014
Forecast type: FROM: standard forecast or significant change
Winds: from the N (360 degrees) at 14 MPH (12 knots; 6.2 m/s)
Visibility: 5 miles (8 km)
Ceiling: 5000 feet AGL
Clouds: overcast cloud deck at 5000 feet AGL
Weather: -SHRA BR  (light rain showers, mist)
TAF Text: FM312100 VRB05KT P6SM VCSH BKN060 AMD LTD TO CLD VIS AND WIND
Forecast period: 2100 UTC 31 August 2014 to 0000 UTC 01 September 2014
Forecast type: FROM: standard forecast or significant change
Winds: variable direction winds at 6 MPH (5 knots; 2.6 m/s)
Visibility: 6 or more miles (10+ km)
Ceiling: 6000 feet AGL
Clouds: broken clouds at 6000 feet AGL
Weather: VCSH  (showers in vicinity)

Find All Airport Services Find A Hotel Find A Rental Car Find A Golf Course Find A Restaurant $100 Hamburger



FBO's on the Field
FBO Company Facility Photos Services Transportation Aviation Fuel Prices: Prices include tax
Catering Weather Repair Courtesy Rental Type 100LL JetA JetA+ MOGAS 8087
 
Choice Aviation, LLC

This FBO has not yet been rated
FS:Avfuel
Last Updated: Aug-29
Login to update fuel prices
SS:
Contact Choice Aviation, LLCMore FBO Information
 
Add another FBO Facility Photos Catering Weather Repair Courtesy Rental Type 100LL JetA JetA+ MOGAS 8087
Services Transportation Aviation Fuel Prices: Prices include tax


GlobalAir.com Airport Resource Center model-print
model-print
model-print
model-print